sensor_id;sensor_type;location;lat;lon;timestamp;pressure;altitude;pressure_sealevel;temperature;humidity
75312;BME280;63906;55.686;37.532;2023-05-07T00:02:30;100570.25;;;0.45;61.48
75312;BME280;63906;55.686;37.532;2023-05-07T00:07:30;100560.69;;;0.33;61.75
75312;BME280;63906;55.686;37.532;2023-05-07T00:12:32;100573.66;;;0.33;62.08
75312;BME280;63906;55.686;37.532;2023-05-07T00:17:33;100557.25;;;0.20;62.46
75312;BME280;63906;55.686;37.532;2023-05-07T00:22:34;100567.00;;;0.29;62.44
75312;BME280;63906;55.686;37.532;2023-05-07T00:27:35;100583.47;;;0.28;62.74
75312;BME280;63906;55.686;37.532;2023-05-07T00:32:35;100572.56;;;0.10;62.55
75312;BME280;63906;55.686;37.532;2023-05-07T00:37:36;100591.84;;;0.19;62.77
75312;BME280;63906;55.686;37.532;2023-05-07T00:42:37;100562.16;;;-0.03;63.11
75312;BME280;63906;55.686;37.532;2023-05-07T00:47:38;100569.09;;;-0.03;63.50
75312;BME280;63906;55.686;37.532;2023-05-07T00:52:39;100598.44;;;0.10;63.51
75312;BME280;63906;55.686;37.532;2023-05-07T00:57:41;100567.50;;;-0.18;63.49
75312;BME280;63906;55.686;37.532;2023-05-07T01:02:42;100585.50;;;-0.17;63.72
75312;BME280;63906;55.686;37.532;2023-05-07T01:07:43;100545.34;;;-0.49;63.74
75312;BME280;63906;55.686;37.532;2023-05-07T01:12:44;100590.69;;;-0.17;64.08
75312;BME280;63906;55.686;37.532;2023-05-07T01:17:45;100608.25;;;-0.22;64.13
75312;BME280;63906;55.686;37.532;2023-05-07T01:22:47;100569.66;;;-0.39;64.11
75312;BME280;63906;55.686;37.532;2023-05-07T01:27:47;100598.47;;;-0.31;64.12
75312;BME280;63906;55.686;37.532;2023-05-07T01:32:53;100590.91;;;-0.34;64.46
75312;BME280;63906;55.686;37.532;2023-05-07T01:37:57;100608.63;;;-0.28;64.39
75312;BME280;63906;55.686;37.532;2023-05-07T01:42:57;100627.91;;;-0.19;64.81
75312;BME280;63906;55.686;37.532;2023-05-07T01:47:58;100635.59;;;-0.18;64.83
75312;BME280;63906;55.686;37.532;2023-05-07T01:53:01;100629.69;;;-0.20;65.01
75312;BME280;63906;55.686;37.532;2023-05-07T01:58:02;100621.91;;;-0.20;65.14
75312;BME280;63906;55.686;37.532;2023-05-07T02:03:03;100643.38;;;-0.18;64.91
75312;BME280;63906;55.686;37.532;2023-05-07T02:08:03;100631.38;;;-0.33;64.95
75312;BME280;63906;55.686;37.532;2023-05-07T02:13:04;100652.41;;;-0.25;65.23
75312;BME280;63906;55.686;37.532;2023-05-07T02:18:06;100612.75;;;-0.52;65.30
75312;BME280;63906;55.686;37.532;2023-05-07T02:23:07;100670.50;;;-0.11;65.43
75312;BME280;63906;55.686;37.532;2023-05-07T02:28:07;100663.69;;;-0.12;65.66
75312;BME280;63906;55.686;37.532;2023-05-07T02:33:08;100653.34;;;-0.26;65.43
75312;BME280;63906;55.686;37.532;2023-05-07T02:38:08;100666.66;;;-0.18;65.44
75312;BME280;63906;55.686;37.532;2023-05-07T02:43:11;100635.44;;;-0.29;65.34
75312;BME280;63906;55.686;37.532;2023-05-07T02:48:11;100663.31;;;-0.06;65.59
75312;BME280;63906;55.686;37.532;2023-05-07T02:53:11;100684.34;;;0.03;65.05
75312;BME280;63906;55.686;37.532;2023-05-07T02:58:12;100646.84;;;-0.05;65.19
75312;BME280;63906;55.686;37.532;2023-05-07T03:03:13;100685.66;;;0.22;65.15
75312;BME280;63906;55.686;37.532;2023-05-07T03:08:14;100678.44;;;0.28;65.23
75312;BME280;63906;55.686;37.532;2023-05-07T03:13:14;100687.31;;;0.23;64.91
75312;BME280;63906;55.686;37.532;2023-05-07T03:18:15;100687.75;;;0.30;64.93
75312;BME280;63906;55.686;37.532;2023-05-07T03:23:15;100705.66;;;0.47;64.90
75312;BME280;63906;55.686;37.532;2023-05-07T03:28:16;100708.94;;;0.64;64.52
75312;BME280;63906;55.686;37.532;2023-05-07T03:33:16;100686.31;;;0.66;64.18
75312;BME280;63906;55.686;37.532;2023-05-07T03:38:17;100716.34;;;0.83;64.20
75312;BME280;63906;55.686;37.532;2023-05-07T03:43:17;100722.34;;;0.83;64.18
75312;BME280;63906;55.686;37.532;2023-05-07T03:48:18;100690.19;;;0.73;63.90
75312;BME280;63906;55.686;37.532;2023-05-07T03:53:18;100706.78;;;0.83;63.27
75312;BME280;63906;55.686;37.532;2023-05-07T03:58:19;100727.13;;;0.89;63.68
75312;BME280;63906;55.686;37.532;2023-05-07T04:03:19;100727.56;;;1.08;63.08
75312;BME280;63906;55.686;37.532;2023-05-07T04:08:20;100709.16;;;0.86;63.83
75312;BME280;63906;55.686;37.532;2023-05-07T04:13:21;100715.72;;;1.04;63.25
75312;BME280;63906;55.686;37.532;2023-05-07T04:18:21;100711.59;;;1.15;62.47
75312;BME280;63906;55.686;37.532;2023-05-07T04:23:22;100690.75;;;1.16;61.79
75312;BME280;63906;55.686;37.532;2023-05-07T04:28:23;100723.44;;;1.44;61.91
75312;BME280;63906;55.686;37.532;2023-05-07T04:33:23;100735.88;;;1.65;60.96
75312;BME280;63906;55.686;37.532;2023-05-07T04:38:24;100747.72;;;1.69;61.20
75312;BME280;63906;55.686;37.532;2023-05-07T04:43:25;100720.53;;;1.74;60.11
75312;BME280;63906;55.686;37.532;2023-05-07T04:48:26;100742.06;;;2.00;59.28
75312;BME280;63906;55.686;37.532;2023-05-07T04:53:27;100759.91;;;2.18;59.24
75312;BME280;63906;55.686;37.532;2023-05-07T04:58:27;100727.19;;;2.02;59.05
75312;BME280;63906;55.686;37.532;2023-05-07T05:03:31;100752.16;;;2.29;58.04
75312;BME280;63906;55.686;37.532;2023-05-07T05:08:32;100743.81;;;2.12;57.79
75312;BME280;63906;55.686;37.532;2023-05-07T05:13:32;100728.31;;;2.24;57.67
75312;BME280;63906;55.686;37.532;2023-05-07T05:18:33;100748.16;;;2.49;56.98
75312;BME280;63906;55.686;37.532;2023-05-07T05:23:33;100751.75;;;2.59;55.60
75312;BME280;63906;55.686;37.532;2023-05-07T05:28:34;100745.84;;;2.57;55.11
75312;BME280;63906;55.686;37.532;2023-05-07T05:33:34;100772.53;;;2.83;54.43
75312;BME280;63906;55.686;37.532;2023-05-07T05:38:35;100759.59;;;2.94;53.09
75312;BME280;63906;55.686;37.532;2023-05-07T05:43:36;100755.16;;;3.18;51.90
75312;BME280;63906;55.686;37.532;2023-05-07T05:48:36;100753.75;;;3.26;52.19
75312;BME280;63906;55.686;37.532;2023-05-07T05:53:37;100751.84;;;3.85;51.67
75312;BME280;63906;55.686;37.532;2023-05-07T05:58:37;100776.03;;;4.42;48.33
75312;BME280;63906;55.686;37.532;2023-05-07T06:03:38;100761.13;;;4.32;47.74
75312;BME280;63906;55.686;37.532;2023-05-07T06:08:38;100776.53;;;4.24;48.16
75312;BME280;63906;55.686;37.532;2023-05-07T06:13:39;100755.69;;;4.36;47.54
75312;BME280;63906;55.686;37.532;2023-05-07T06:18:39;100786.19;;;4.99;46.61
75312;BME280;63906;55.686;37.532;2023-05-07T06:23:40;100787.47;;;5.47;44.62
75312;BME280;63906;55.686;37.532;2023-05-07T06:28:41;100792.47;;;5.80;43.40
75312;BME280;63906;55.686;37.532;2023-05-07T06:33:41;100756.19;;;5.56;43.78
75312;BME280;63906;55.686;37.532;2023-05-07T06:38:42;100768.06;;;5.70;43.22
75312;BME280;63906;55.686;37.532;2023-05-07T06:43:43;100763.03;;;5.78;42.02
75312;BME280;63906;55.686;37.532;2023-05-07T06:48:43;100782.47;;;5.85;40.98
75312;BME280;63906;55.686;37.532;2023-05-07T06:53:44;100776.59;;;5.93;40.75
75312;BME280;63906;55.686;37.532;2023-05-07T06:58:44;100776.72;;;6.22;40.60
75312;BME280;63906;55.686;37.532;2023-05-07T07:03:45;100777.88;;;6.48;38.28
75312;BME280;63906;55.686;37.532;2023-05-07T07:08:46;100788.47;;;6.57;38.43
75312;BME280;63906;55.686;37.532;2023-05-07T07:13:46;100776.75;;;6.41;39.17
75312;BME280;63906;55.686;37.532;2023-05-07T07:18:47;100759.25;;;6.23;38.31
75312;BME280;63906;55.686;37.532;2023-05-07T07:23:47;100745.88;;;6.16;37.92
75312;BME280;63906;55.686;37.532;2023-05-07T07:28:48;100779.84;;;6.85;37.55
75312;BME280;63906;55.686;37.532;2023-05-07T07:33:49;100769.66;;;6.72;36.86
75312;BME280;63906;55.686;37.532;2023-05-07T07:38:50;100765.72;;;6.28;37.36
75312;BME280;63906;55.686;37.532;2023-05-07T07:43:51;100771.19;;;6.15;37.85
75312;BME280;63906;55.686;37.532;2023-05-07T07:48:51;100745.19;;;6.24;36.97
75312;BME280;63906;55.686;37.532;2023-05-07T07:53:51;100747.59;;;6.56;36.65
75312;BME280;63906;55.686;37.532;2023-05-07T07:58:52;100741.47;;;7.33;35.12
75312;BME280;63906;55.686;37.532;2023-05-07T08:03:52;100733.88;;;7.86;33.91
75312;BME280;63906;55.686;37.532;2023-05-07T08:08:53;100758.25;;;7.96;33.37
75312;BME280;63906;55.686;37.532;2023-05-07T08:13:54;100738.06;;;7.69;33.29
75312;BME280;63906;55.686;37.532;2023-05-07T08:18:55;100725.25;;;7.29;34.48
75312;BME280;63906;55.686;37.532;2023-05-07T08:23:55;100762.31;;;7.34;34.29
75312;BME280;63906;55.686;37.532;2023-05-07T08:28:56;100752.25;;;7.39;33.46
75312;BME280;63906;55.686;37.532;2023-05-07T08:33:59;100761.38;;;7.06;32.77
75312;BME280;63906;55.686;37.532;2023-05-07T08:39:00;100769.50;;;6.93;32.86
75312;BME280;63906;55.686;37.532;2023-05-07T08:44:03;100755.28;;;7.35;31.24
75312;BME280;63906;55.686;37.532;2023-05-07T08:49:04;100755.66;;;8.51;31.97
75312;BME280;63906;55.686;37.532;2023-05-07T08:54:05;100743.50;;;9.56;29.97
75312;BME280;63906;55.686;37.532;2023-05-07T08:59:06;100688.91;;;9.76;28.29
75312;BME280;63906;55.686;37.532;2023-05-07T09:04:06;100725.53;;;9.77;29.51
75312;BME280;63906;55.686;37.532;2023-05-07T09:09:07;100714.16;;;10.11;28.77
75312;BME280;63906;55.686;37.532;2023-05-07T09:14:08;100742.75;;;10.48;27.52
75312;BME280;63906;55.686;37.532;2023-05-07T09:19:08;100715.22;;;9.84;27.78
75312;BME280;63906;55.686;37.532;2023-05-07T09:24:09;100753.25;;;10.06;26.55
75312;BME280;63906;55.686;37.532;2023-05-07T09:29:10;100730.97;;;9.76;27.01
75312;BME280;63906;55.686;37.532;2023-05-07T09:34:10;100726.66;;;9.75;26.48
75312;BME280;63906;55.686;37.532;2023-05-07T09:39:11;100702.47;;;10.05;27.52
75312;BME280;63906;55.686;37.532;2023-05-07T09:44:14;100723.69;;;10.78;24.36
75312;BME280;63906;55.686;37.532;2023-05-07T09:49:23;100706.19;;;10.29;25.63
75312;BME280;63906;55.686;37.532;2023-05-07T09:54:25;100728.75;;;10.39;26.08
75312;BME280;63906;55.686;37.532;2023-05-07T09:59:27;100731.38;;;10.47;26.24
75312;BME280;63906;55.686;37.532;2023-05-07T10:04:29;100735.13;;;10.37;26.92
75312;BME280;63906;55.686;37.532;2023-05-07T10:09:29;100733.09;;;13.98;23.21
75312;BME280;63906;55.686;37.532;2023-05-07T10:14:31;100724.22;;;17.31;19.91
75312;BME280;63906;55.686;37.532;2023-05-07T10:19:32;100727.25;;;18.58;18.77
75312;BME280;63906;55.686;37.532;2023-05-07T10:24:34;100731.94;;;18.62;17.36
75312;BME280;63906;55.686;37.532;2023-05-07T10:29:44;100718.41;;;20.12;16.19
75312;BME280;63906;55.686;37.532;2023-05-07T10:34:47;100708.97;;;21.87;14.75
75312;BME280;63906;55.686;37.532;2023-05-07T10:39:49;100730.56;;;24.15;13.08
75312;BME280;63906;55.686;37.532;2023-05-07T10:44:49;100723.66;;;23.76;11.94
75312;BME280;63906;55.686;37.532;2023-05-07T11:05:24;100704.00;;;17.04;16.10
75312;BME280;63906;55.686;37.532;2023-05-07T11:10:54;100718.84;;;21.86;14.49
75312;BME280;63906;55.686;37.532;2023-05-07T11:15:55;100720.50;;;23.79;11.85
75312;BME280;63906;55.686;37.532;2023-05-07T11:20:59;100733.72;;;19.68;13.50
75312;BME280;63906;55.686;37.532;2023-05-07T11:26:04;100708.53;;;14.84;17.08
75312;BME280;63906;55.686;37.532;2023-05-07T11:31:05;100731.03;;;12.89;19.47
75312;BME280;63906;55.686;37.532;2023-05-07T11:36:07;100737.91;;;11.74;21.06
75312;BME280;63906;55.686;37.532;2023-05-07T11:41:08;100753.00;;;11.16;22.17
75312;BME280;63906;55.686;37.532;2023-05-07T11:46:10;100746.41;;;10.96;22.35
75312;BME280;63906;55.686;37.532;2023-05-07T11:51:11;100747.25;;;14.27;20.74
75312;BME280;63906;55.686;37.532;2023-05-07T11:56:15;100721.97;;;17.41;17.42
75312;BME280;63906;55.686;37.532;2023-05-07T12:01:16;100701.22;;;20.91;13.67
75312;BME280;63906;55.686;37.532;2023-05-07T12:06:18;100682.19;;;17.60;15.51
75312;BME280;63906;55.686;37.532;2023-05-07T12:11:23;100716.53;;;14.90;17.96
75312;BME280;63906;55.686;37.532;2023-05-07T12:16:24;100739.84;;;13.57;19.36
75312;BME280;63906;55.686;37.532;2023-05-07T12:21:25;100744.47;;;12.79;20.63
75312;BME280;63906;55.686;37.532;2023-05-07T12:26:26;100727.94;;;12.31;21.35
75312;BME280;63906;55.686;37.532;2023-05-07T12:31:27;100724.41;;;14.05;20.37
75312;BME280;63906;55.686;37.532;2023-05-07T12:36:39;100723.66;;;15.46;19.24
75312;BME280;63906;55.686;37.532;2023-05-07T12:41:57;100726.03;;;14.42;19.97
75312;BME280;63906;55.686;37.532;2023-05-07T12:47:01;100722.91;;;12.90;21.08
75312;BME280;63906;55.686;37.532;2023-05-07T12:52:02;100732.34;;;12.39;21.73
75312;BME280;63906;55.686;37.532;2023-05-07T12:57:07;100715.53;;;11.62;22.00
75312;BME280;63906;55.686;37.532;2023-05-07T13:02:08;100702.50;;;11.60;22.17
75312;BME280;63906;55.686;37.532;2023-05-07T13:07:09;100724.72;;;11.74;22.08
75312;BME280;63906;55.686;37.532;2023-05-07T13:12:10;100693.41;;;12.10;22.18
75312;BME280;63906;55.686;37.532;2023-05-07T13:17:10;100713.75;;;14.98;19.74
75312;BME280;63906;55.686;37.532;2023-05-07T13:22:11;100693.00;;;15.37;18.60
75312;BME280;63906;55.686;37.532;2023-05-07T13:27:11;100711.16;;;14.05;19.32
75312;BME280;63906;55.686;37.532;2023-05-07T13:32:12;100713.72;;;13.24;21.11
75312;BME280;63906;55.686;37.532;2023-05-07T13:37:12;100726.66;;;12.73;20.90
75312;BME280;63906;55.686;37.532;2023-05-07T13:42:13;100719.84;;;12.02;21.39
75312;BME280;63906;55.686;37.532;2023-05-07T13:47:14;100721.97;;;11.51;21.63
75312;BME280;63906;55.686;37.532;2023-05-07T13:52:14;100732.94;;;11.07;22.51
75312;BME280;63906;55.686;37.532;2023-05-07T13:57:15;100702.44;;;10.39;23.13
75312;BME280;63906;55.686;37.532;2023-05-07T14:02:15;100732.03;;;10.33;23.89
75312;BME280;63906;55.686;37.532;2023-05-07T14:07:16;100734.47;;;10.27;23.99
75312;BME280;63906;55.686;37.532;2023-05-07T14:12:16;100744.56;;;10.05;24.32
75312;BME280;63906;55.686;37.532;2023-05-07T14:17:17;100666.53;;;9.71;24.49
75312;BME280;63906;55.686;37.532;2023-05-07T14:22:20;100724.16;;;10.74;24.46
75312;BME280;63906;55.686;37.532;2023-05-07T14:27:20;100674.94;;;10.34;23.92
75312;BME280;63906;55.686;37.532;2023-05-07T14:32:21;100639.59;;;9.78;24.41
75312;BME280;63906;55.686;37.532;2023-05-07T14:37:23;100705.19;;;10.30;24.69
75312;BME280;63906;55.686;37.532;2023-05-07T14:42:24;100720.38;;;10.44;24.31
75312;BME280;63906;55.686;37.532;2023-05-07T14:47:24;100706.69;;;10.32;24.47
75312;BME280;63906;55.686;37.532;2023-05-07T14:52:25;100725.06;;;10.24;24.52
75312;BME280;63906;55.686;37.532;2023-05-07T14:57:26;100726.13;;;10.05;25.12
75312;BME280;63906;55.686;37.532;2023-05-07T15:02:26;100712.22;;;9.79;25.69
75312;BME280;63906;55.686;37.532;2023-05-07T15:07:27;100698.78;;;9.48;24.90
75312;BME280;63906;55.686;37.532;2023-05-07T15:12:28;100734.50;;;9.58;25.06
75312;BME280;63906;55.686;37.532;2023-05-07T15:17:29;100721.38;;;9.66;25.21
75312;BME280;63906;55.686;37.532;2023-05-07T15:22:29;100721.81;;;9.88;25.04
75312;BME280;63906;55.686;37.532;2023-05-07T15:27:30;100713.44;;;10.43;24.60
75312;BME280;63906;55.686;37.532;2023-05-07T15:32:31;100700.63;;;10.81;23.50
75312;BME280;63906;55.686;37.532;2023-05-07T15:37:32;100716.78;;;10.94;23.67
75312;BME280;63906;55.686;37.532;2023-05-07T15:42:33;100721.72;;;10.64;23.94
75312;BME280;63906;55.686;37.532;2023-05-07T15:47:33;100728.75;;;10.31;24.30
75312;BME280;63906;55.686;37.532;2023-05-07T15:52:37;100711.94;;;9.82;24.69
75312;BME280;63906;55.686;37.532;2023-05-07T15:57:38;100709.53;;;9.36;25.41
75312;BME280;63906;55.686;37.532;2023-05-07T16:02:39;100735.84;;;9.18;26.03
75312;BME280;63906;55.686;37.532;2023-05-07T16:07:40;100739.66;;;8.98;26.10
75312;BME280;63906;55.686;37.532;2023-05-07T16:12:42;100727.13;;;8.74;26.32
75312;BME280;63906;55.686;37.532;2023-05-07T16:17:45;100734.56;;;8.61;26.67
75312;BME280;63906;55.686;37.532;2023-05-07T16:22:46;100713.72;;;8.32;27.45
75312;BME280;63906;55.686;37.532;2023-05-07T16:27:47;100734.69;;;8.42;27.24
75312;BME280;63906;55.686;37.532;2023-05-07T16:32:48;100749.47;;;8.43;28.07
75312;BME280;63906;55.686;37.532;2023-05-07T16:37:48;100718.97;;;8.32;27.12
75312;BME280;63906;55.686;37.532;2023-05-07T16:42:49;100762.16;;;8.47;27.65
75312;BME280;63906;55.686;37.532;2023-05-07T16:47:49;100731.47;;;8.02;28.29
75312;BME280;63906;55.686;37.532;2023-05-07T16:52:50;100750.97;;;7.90;28.09
75312;BME280;63906;55.686;37.532;2023-05-07T16:57:51;100753.53;;;7.63;28.75
75312;BME280;63906;55.686;37.532;2023-05-07T17:02:51;100754.72;;;7.41;28.96
75312;BME280;63906;55.686;37.532;2023-05-07T17:07:52;100732.19;;;6.91;29.77
75312;BME280;63906;55.686;37.532;2023-05-07T17:12:53;100763.31;;;6.94;29.89
75312;BME280;63906;55.686;37.532;2023-05-07T17:17:53;100770.75;;;6.89;30.29
75312;BME280;63906;55.686;37.532;2023-05-07T17:22:54;100764.13;;;6.75;29.94
75312;BME280;63906;55.686;37.532;2023-05-07T17:27:55;100778.88;;;6.86;30.93
75312;BME280;63906;55.686;37.532;2023-05-07T17:32:55;100759.44;;;6.60;31.05
75312;BME280;63906;55.686;37.532;2023-05-07T17:37:57;100780.38;;;6.69;31.69
75312;BME280;63906;55.686;37.532;2023-05-07T17:42:57;100777.47;;;6.63;32.17
75312;BME280;63906;55.686;37.532;2023-05-07T17:47:58;100786.69;;;6.47;32.32
75312;BME280;63906;55.686;37.532;2023-05-07T17:52:58;100792.72;;;6.38;32.37
75312;BME280;63906;55.686;37.532;2023-05-07T17:57:59;100773.91;;;6.04;32.56
75312;BME280;63906;55.686;37.532;2023-05-07T18:03:03;100785.75;;;5.87;34.95
75312;BME280;63906;55.686;37.532;2023-05-07T18:08:05;100796.28;;;5.76;34.24
75312;BME280;63906;55.686;37.532;2023-05-07T18:13:06;100778.25;;;5.43;35.36
75312;BME280;63906;55.686;37.532;2023-05-07T18:18:06;100774.88;;;5.10;36.99
75312;BME280;63906;55.686;37.532;2023-05-07T18:23:07;100774.41;;;4.73;38.80
75312;BME280;63906;55.686;37.532;2023-05-07T18:28:08;100818.19;;;4.58;38.71
75312;BME280;63906;55.686;37.532;2023-05-07T18:33:08;100814.91;;;4.33;39.74
75312;BME280;63906;55.686;37.532;2023-05-07T18:38:09;100810.78;;;4.09;40.59
75312;BME280;63906;55.686;37.532;2023-05-07T18:43:10;100825.34;;;4.22;37.52
75312;BME280;63906;55.686;37.532;2023-05-07T18:48:10;100815.09;;;4.53;39.82
75312;BME280;63906;55.686;37.532;2023-05-07T18:53:11;100808.56;;;4.58;38.22
75312;BME280;63906;55.686;37.532;2023-05-07T18:58:12;100829.25;;;4.94;37.35
75312;BME280;63906;55.686;37.532;2023-05-07T19:03:12;100831.09;;;5.03;38.29
75312;BME280;63906;55.686;37.532;2023-05-07T19:08:14;100836.13;;;4.95;37.86
75312;BME280;63906;55.686;37.532;2023-05-07T19:13:15;100801.44;;;4.72;38.54
75312;BME280;63906;55.686;37.532;2023-05-07T19:18:16;100824.81;;;4.62;40.70
75312;BME280;63906;55.686;37.532;2023-05-07T19:23:16;100828.66;;;4.24;41.12
75312;BME280;63906;55.686;37.532;2023-05-07T19:28:17;100808.75;;;3.78;41.97
75312;BME280;63906;55.686;37.532;2023-05-07T19:33:18;100817.81;;;3.50;43.53
75312;BME280;63906;55.686;37.532;2023-05-07T19:38:18;100856.16;;;3.60;42.24
75312;BME280;63906;55.686;37.532;2023-05-07T19:43:19;100848.75;;;3.77;41.21
75312;BME280;63906;55.686;37.532;2023-05-07T19:48:20;100863.25;;;4.15;43.16
75312;BME280;63906;55.686;37.532;2023-05-07T19:53:20;100850.81;;;3.85;44.87
75312;BME280;63906;55.686;37.532;2023-05-07T19:58:21;100829.75;;;3.53;44.17
75312;BME280;63906;55.686;37.532;2023-05-07T20:03:22;100870.66;;;3.75;44.84
75312;BME280;63906;55.686;37.532;2023-05-07T20:08:22;100867.03;;;3.54;44.76
75312;BME280;63906;55.686;37.532;2023-05-07T20:13:23;100884.28;;;3.43;44.77
75312;BME280;63906;55.686;37.532;2023-05-07T20:18:23;100860.00;;;3.08;46.12
75312;BME280;63906;55.686;37.532;2023-05-07T20:23:25;100851.75;;;2.90;46.34
75312;BME280;63906;55.686;37.532;2023-05-07T20:28:26;100863.97;;;2.77;47.61
75312;BME280;63906;55.686;37.532;2023-05-07T20:33:28;100883.28;;;2.61;48.37
75312;BME280;63906;55.686;37.532;2023-05-07T20:38:29;100814.56;;;2.03;49.74
75312;BME280;63906;55.686;37.532;2023-05-07T20:43:33;100852.06;;;2.12;49.39
75312;BME280;63906;55.686;37.532;2023-05-07T20:48:34;100863.78;;;2.05;49.67
75312;BME280;63906;55.686;37.532;2023-05-07T20:53:34;100868.78;;;1.95;49.87
75312;BME280;63906;55.686;37.532;2023-05-07T20:58:36;100909.09;;;2.01;50.66
75312;BME280;63906;55.686;37.532;2023-05-07T21:03:37;100919.78;;;1.96;52.62
75312;BME280;63906;55.686;37.532;2023-05-07T21:08:37;100899.69;;;1.73;52.31
75312;BME280;63906;55.686;37.532;2023-05-07T21:13:38;100918.81;;;1.72;54.27
75312;BME280;63906;55.686;37.532;2023-05-07T21:18:39;100931.50;;;1.76;54.54
75312;BME280;63906;55.686;37.532;2023-05-07T21:23:39;100910.38;;;1.55;54.23
75312;BME280;63906;55.686;37.532;2023-05-07T21:28:40;100926.66;;;1.57;55.13
75312;BME280;63906;55.686;37.532;2023-05-07T21:33:42;100948.25;;;1.58;55.62
75312;BME280;63906;55.686;37.532;2023-05-07T21:38:43;100952.19;;;1.51;56.50
75312;BME280;63906;55.686;37.532;2023-05-07T21:43:44;100957.75;;;1.45;57.79
75312;BME280;63906;55.686;37.532;2023-05-07T21:48:45;100960.75;;;1.39;57.94
75312;BME280;63906;55.686;37.532;2023-05-07T21:53:45;100955.75;;;1.35;57.51
75312;BME280;63906;55.686;37.532;2023-05-07T21:58:46;100956.22;;;1.28;59.02
75312;BME280;63906;55.686;37.532;2023-05-07T22:03:47;100942.38;;;1.15;58.00
75312;BME280;63906;55.686;37.532;2023-05-07T22:08:48;100947.13;;;1.08;59.10
75312;BME280;63906;55.686;37.532;2023-05-07T22:13:49;100872.91;;;0.51;60.08
75312;BME280;63906;55.686;37.532;2023-05-07T22:18:50;100936.34;;;0.87;61.07
75312;BME280;63906;55.686;37.532;2023-05-07T22:23:50;100917.09;;;0.77;60.35
75312;BME280;63906;55.686;37.532;2023-05-07T22:28:51;100964.63;;;1.04;60.46
75312;BME280;63906;55.686;37.532;2023-05-07T22:33:51;100971.47;;;1.05;59.19
75312;BME280;63906;55.686;37.532;2023-05-07T22:38:52;100975.00;;;1.04;59.82
75312;BME280;63906;55.686;37.532;2023-05-07T22:43:53;100961.88;;;0.93;60.53
75312;BME280;63906;55.686;37.532;2023-05-07T22:48:54;100973.91;;;0.94;59.81
75312;BME280;63906;55.686;37.532;2023-05-07T22:53:54;100971.50;;;0.91;60.82
75312;BME280;63906;55.686;37.532;2023-05-07T22:58:55;100951.72;;;0.76;61.20
75312;BME280;63906;55.686;37.532;2023-05-07T23:03:58;100935.16;;;0.64;61.65
75312;BME280;63906;55.686;37.532;2023-05-07T23:08:58;100963.53;;;0.80;63.68
75312;BME280;63906;55.686;37.532;2023-05-07T23:13:59;100933.41;;;0.50;62.64
75312;BME280;63906;55.686;37.532;2023-05-07T23:19:03;100941.56;;;0.44;62.14
75312;BME280;63906;55.686;37.532;2023-05-07T23:24:10;100950.06;;;0.46;62.97
75312;BME280;63906;55.686;37.532;2023-05-07T23:29:13;100930.34;;;0.30;62.96
75312;BME280;63906;55.686;37.532;2023-05-07T23:34:13;100956.16;;;0.45;63.42
75312;BME280;63906;55.686;37.532;2023-05-07T23:39:14;100971.16;;;0.54;63.33
75312;BME280;63906;55.686;37.532;2023-05-07T23:44:14;100971.25;;;0.53;63.41
75312;BME280;63906;55.686;37.532;2023-05-07T23:49:15;100935.72;;;0.26;63.74
75312;BME280;63906;55.686;37.532;2023-05-07T23:54:16;100965.03;;;0.41;63.22
75312;BME280;63906;55.686;37.532;2023-05-07T23:59:16;100966.91;;;0.39;63.74
